createdAt,value
2022-10-17T00:00:21.056Z,2.83
2022-10-17T00:01:22.786Z,3.10
2022-10-17T00:02:24.782Z,3.20
2022-10-17T00:03:26.439Z,3.00
2022-10-17T00:04:28.450Z,2.80
2022-10-17T00:05:30.721Z,2.70
2022-10-17T00:06:35.903Z,2.23
2022-10-17T00:07:38.021Z,2.13
2022-10-17T00:08:41.282Z,2.23
2022-10-17T00:09:47.853Z,2.23
2022-10-17T00:10:56.756Z,2.20
2022-10-17T00:11:58.475Z,2.27
2022-10-17T00:13:03.023Z,1.83
2022-10-17T00:14:05.289Z,1.90
2022-10-17T00:15:07.472Z,2.00
2022-10-17T00:16:10.880Z,1.90
2022-10-17T00:17:12.576Z,1.90
2022-10-17T00:18:15.089Z,1.93
2022-10-17T00:19:17.091Z,2.10
2022-10-17T00:20:19.222Z,2.10
2022-10-17T00:21:22.001Z,2.10
2022-10-17T00:22:23.790Z,2.30
2022-10-17T00:23:29.264Z,2.10
2022-10-17T00:24:39.604Z,2.20
2022-10-17T00:25:41.221Z,2.10
2022-10-17T00:26:43.480Z,2.17
2022-10-17T00:27:45.514Z,2.30
2022-10-17T00:28:51.039Z,2.20
2022-10-17T00:29:52.804Z,1.77
2022-10-17T00:31:00.826Z,1.57
2022-10-17T00:32:05.737Z,2.00
2022-10-17T00:33:07.235Z,2.10
2022-10-17T00:34:11.533Z,2.20
2022-10-17T00:35:13.690Z,2.20
2022-10-17T00:36:21.915Z,2.17
2022-10-17T00:37:23.850Z,1.97
2022-10-17T00:38:25.632Z,1.87
2022-10-17T00:39:29.901Z,2.10
2022-10-17T00:40:31.228Z,2.10
2022-10-17T00:41:33.299Z,2.00
2022-10-17T00:42:34.646Z,2.00
2022-10-17T00:43:54.444Z,2.03
2022-10-17T00:45:22.170Z,2.20
2022-10-17T00:46:24.399Z,2.30
2022-10-17T00:47:25.802Z,2.30
2022-10-17T00:48:27.256Z,2.13
2022-10-17T00:49:30.934Z,2.17
2022-10-17T00:50:33.381Z,2.17
2022-10-17T00:51:38.582Z,2.27
2022-10-17T00:52:40.573Z,2.43
2022-10-17T00:53:41.907Z,2.20
2022-10-17T00:54:45.277Z,2.10
2022-10-17T00:55:50.702Z,2.50
2022-10-17T00:56:52.164Z,2.20
2022-10-17T00:57:53.592Z,2.20
2022-10-17T00:58:55.387Z,2.43
2022-10-17T00:59:57.747Z,2.27
2022-10-17T01:00:59.070Z,2.50
2022-10-17T01:02:01.890Z,2.20
2022-10-17T01:03:03.280Z,2.10
2022-10-17T01:04:04.762Z,2.07
2022-10-17T01:05:06.976Z,2.00
2022-10-17T01:06:09.530Z,2.30
2022-10-17T01:07:10.889Z,2.00
2022-10-17T01:08:12.772Z,2.10
2022-10-17T01:09:14.071Z,2.33
2022-10-17T01:10:15.500Z,2.30
2022-10-17T01:11:24.877Z,2.20
2022-10-17T01:12:32.654Z,2.70
2022-10-17T01:13:37.392Z,2.33
2022-10-17T01:14:48.723Z,2.17
2022-10-17T01:15:56.238Z,2.50
2022-10-17T01:17:04.899Z,2.10
2022-10-17T01:18:25.625Z,2.23
2022-10-17T01:19:45.820Z,2.30
2022-10-17T01:21:07.120Z,2.50
2022-10-17T01:22:23.553Z,2.37
2022-10-17T01:23:46.237Z,2.10
2022-10-17T01:24:49.336Z,2.40
2022-10-17T01:25:54.515Z,2.83
2022-10-17T01:27:01.934Z,2.37
2022-10-17T01:28:14.415Z,2.73
2022-10-17T01:29:23.680Z,2.30
2022-10-17T01:30:43.938Z,2.60
2022-10-17T01:31:47.465Z,2.33
2022-10-17T01:32:51.132Z,2.40
2022-10-17T01:34:12.249Z,2.27
2022-10-17T01:35:20.073Z,2.07
2022-10-17T01:36:36.072Z,2.30
2022-10-17T01:37:49.888Z,2.47
2022-10-17T01:39:14.388Z,2.20
2022-10-17T01:40:22.263Z,2.30
2022-10-17T01:41:23.550Z,2.20
2022-10-17T01:42:28.959Z,2.60
2022-10-17T01:43:41.423Z,2.40
2022-10-17T01:44:47.097Z,2.30
2022-10-17T01:46:00.598Z,2.60
2022-10-17T01:47:05.169Z,2.60
2022-10-17T01:48:14.401Z,2.70
2022-10-17T01:49:17.262Z,2.43
2022-10-17T01:50:20.372Z,2.47
2022-10-17T01:51:24.393Z,2.47
2022-10-17T01:52:28.429Z,2.60
2022-10-17T01:53:34.540Z,2.40
2022-10-17T01:54:36.164Z,2.10
2022-10-17T01:55:40.402Z,2.43
2022-10-17T01:56:42.757Z,2.57
2022-10-17T01:57:47.991Z,2.90
2022-10-17T01:58:51.737Z,2.43
2022-10-17T01:59:55.199Z,2.90
2022-10-17T02:00:57.964Z,2.70
2022-10-17T02:02:00.299Z,3.10
2022-10-17T02:03:04.567Z,2.83
2022-10-17T02:04:06.892Z,2.20
2022-10-17T02:05:08.624Z,2.27
2022-10-17T02:06:10.016Z,2.47
2022-10-17T02:07:12.851Z,2.93
2022-10-17T02:08:24.367Z,2.27
2022-10-17T02:09:26.528Z,2.30
2022-10-17T02:10:30.552Z,2.70
2022-10-17T02:11:31.888Z,2.60
2022-10-17T02:12:45.971Z,2.17
2022-10-17T02:13:53.466Z,2.43
2022-10-17T02:14:54.784Z,2.90
2022-10-17T02:15:58.971Z,2.30
2022-10-17T02:17:12.563Z,2.33
2022-10-17T02:18:32.570Z,2.47
2022-10-17T02:19:52.297Z,2.33
2022-10-17T02:21:06.910Z,2.40
2022-10-17T02:22:16.929Z,2.23
2022-10-17T02:23:25.730Z,2.70
2022-10-17T02:24:31.023Z,2.90
2022-10-17T02:25:37.638Z,2.70
2022-10-17T02:26:50.133Z,2.83
2022-10-17T02:28:10.109Z,2.87
2022-10-17T02:29:14.753Z,3.00
2022-10-17T02:30:27.197Z,3.03
2022-10-17T02:31:32.329Z,3.07
2022-10-17T02:32:33.599Z,4.13
2022-10-17T02:33:41.784Z,3.50
2022-10-17T02:34:44.845Z,3.60
2022-10-17T02:35:48.995Z,3.40
2022-10-17T02:36:52.226Z,3.10
2022-10-17T02:37:54.149Z,3.33
2022-10-17T02:38:56.837Z,3.37
2022-10-17T02:40:00.397Z,3.53
2022-10-17T02:41:01.923Z,4.20
2022-10-17T02:42:05.649Z,4.80
2022-10-17T02:43:07.559Z,6.33
2022-10-17T02:44:10.750Z,6.17
2022-10-17T02:45:12.745Z,6.47
2022-10-17T02:46:20.823Z,8.97
2022-10-17T02:47:26.481Z,10.27
2022-10-17T02:48:47.071Z,10.93
2022-10-17T02:49:52.590Z,9.03
2022-10-17T02:50:53.960Z,8.13
2022-10-17T02:52:02.531Z,7.73
2022-10-17T02:53:09.345Z,6.77
2022-10-17T02:54:14.349Z,6.00
2022-10-17T02:55:19.974Z,5.70
2022-10-17T02:56:23.573Z,6.90
2022-10-17T02:57:27.922Z,5.90
2022-10-17T02:58:31.552Z,5.40
2022-10-17T03:00:40.712Z,3.80
2022-10-17T03:01:42.292Z,4.27
2022-10-17T03:02:46.145Z,4.23
2022-10-17T03:03:47.486Z,3.30
2022-10-17T03:04:48.875Z,3.10
2022-10-17T03:05:51.014Z,3.33
2022-10-17T03:06:52.336Z,3.10
2022-10-17T03:07:54.255Z,3.00
2022-10-17T03:08:55.664Z,3.03
2022-10-17T03:09:57.011Z,2.70
2022-10-17T03:10:58.432Z,3.10
2022-10-17T03:12:01.877Z,2.97
2022-10-17T03:13:03.652Z,2.90
2022-10-17T03:14:05.742Z,2.93
2022-10-17T03:15:07.784Z,3.30
2022-10-17T03:16:09.157Z,3.37
2022-10-17T03:17:10.817Z,3.70
2022-10-17T03:18:12.283Z,2.87
2022-10-17T03:19:13.735Z,2.70
2022-10-17T03:20:15.122Z,2.90
2022-10-17T03:21:16.657Z,2.87
2022-10-17T03:22:18.062Z,2.73
2022-10-17T03:23:20.960Z,2.70
2022-10-17T03:24:22.610Z,2.50
2022-10-17T03:25:23.889Z,2.60
2022-10-17T03:26:25.228Z,2.70
2022-10-17T03:27:26.817Z,2.90
2022-10-17T03:28:28.345Z,2.80
2022-10-17T03:29:29.930Z,2.43
2022-10-17T03:30:32.321Z,2.50
2022-10-17T03:31:33.695Z,2.57
2022-10-17T03:32:35.798Z,2.70
2022-10-17T03:33:37.609Z,2.73
2022-10-17T03:34:38.954Z,2.87
2022-10-17T03:35:40.734Z,2.80
2022-10-17T03:36:42.929Z,2.50
2022-10-17T03:37:44.259Z,2.67
2022-10-17T03:38:46.239Z,2.57
2022-10-17T03:39:47.647Z,2.87
2022-10-17T03:40:58.817Z,2.77
2022-10-17T03:42:01.107Z,3.00
2022-10-17T03:43:02.432Z,2.80
2022-10-17T03:44:04.484Z,2.53
2022-10-17T03:45:06.152Z,2.97
2022-10-17T03:46:07.776Z,3.10
2022-10-17T03:47:11.915Z,2.87
2022-10-17T03:48:15.505Z,2.90
2022-10-17T03:49:16.806Z,3.30
2022-10-17T03:50:18.581Z,2.80
2022-10-17T03:51:20.019Z,3.00
2022-10-17T03:52:26.017Z,3.03
2022-10-17T03:53:27.879Z,2.80
2022-10-17T03:54:29.260Z,2.93
2022-10-17T03:55:30.724Z,2.77
2022-10-17T03:56:32.068Z,3.10
2022-10-17T03:57:37.696Z,3.00
2022-10-17T03:58:40.673Z,2.80
2022-10-17T03:59:42.050Z,2.90
2022-10-17T04:00:49.267Z,2.93
2022-10-17T04:01:50.615Z,3.10
2022-10-17T04:02:52.961Z,3.13
2022-10-17T04:03:55.218Z,2.97
2022-10-17T04:04:56.644Z,3.40
2022-10-17T04:06:01.820Z,3.07
2022-10-17T04:07:05.059Z,3.20
2022-10-17T04:08:08.147Z,3.00
2022-10-17T04:09:28.000Z,3.00
2022-10-17T04:10:37.557Z,3.20
2022-10-17T04:11:39.162Z,2.90
2022-10-17T04:12:40.552Z,3.27
2022-10-17T04:13:42.041Z,3.10
2022-10-17T04:14:43.367Z,3.47
2022-10-17T04:15:54.730Z,3.10
2022-10-17T04:16:56.098Z,3.57
2022-10-17T04:17:57.490Z,3.50
2022-10-17T04:18:59.765Z,3.43
2022-10-17T04:20:04.478Z,3.07
2022-10-17T04:21:06.718Z,3.20
2022-10-17T04:22:08.518Z,3.13
2022-10-17T04:23:12.246Z,3.20
2022-10-17T04:24:13.644Z,3.37
2022-10-17T04:25:19.746Z,3.37
2022-10-17T04:26:23.459Z,3.77
2022-10-17T04:27:24.899Z,3.37
2022-10-17T04:28:26.986Z,3.33
2022-10-17T04:29:28.527Z,3.30
2022-10-17T04:30:42.323Z,3.17
2022-10-17T04:31:47.027Z,3.20
2022-10-17T04:32:59.835Z,3.47
2022-10-17T04:34:02.875Z,3.43
2022-10-17T04:35:04.687Z,3.43
2022-10-17T04:36:07.810Z,3.43
2022-10-17T04:37:10.092Z,3.37
2022-10-17T04:38:11.849Z,3.70
2022-10-17T04:40:20.922Z,3.17
2022-10-17T04:41:22.261Z,3.20
2022-10-17T04:42:23.602Z,3.33
2022-10-17T04:43:27.387Z,3.83
2022-10-17T04:44:30.874Z,3.80
2022-10-17T04:45:33.004Z,3.30
2022-10-17T04:46:37.541Z,3.20
2022-10-17T04:47:38.873Z,3.33
2022-10-17T04:48:40.642Z,3.27
2022-10-17T04:50:57.893Z,3.37
2022-10-17T04:52:06.532Z,3.60
2022-10-17T04:53:35.286Z,3.73
2022-10-17T04:54:36.747Z,3.33
2022-10-17T04:55:42.753Z,3.53
2022-10-17T04:56:44.219Z,3.20
2022-10-17T04:57:45.705Z,3.37
2022-10-17T04:58:52.915Z,3.67
2022-10-17T04:59:54.430Z,3.37
2022-10-17T05:01:04.440Z,3.20
2022-10-17T05:02:07.217Z,3.60
2022-10-17T05:03:09.197Z,3.10
2022-10-17T05:04:10.526Z,3.67
2022-10-17T05:05:11.881Z,3.87
2022-10-17T05:06:14.353Z,3.17
2022-10-17T05:07:18.084Z,3.30
2022-10-17T05:08:31.952Z,3.43
2022-10-17T05:09:33.331Z,3.40
2022-10-17T05:10:42.142Z,3.50
2022-10-17T05:11:43.488Z,3.53
2022-10-17T05:12:46.990Z,3.97
2022-10-17T05:13:52.329Z,3.47
2022-10-17T05:14:53.734Z,3.80
2022-10-17T05:16:01.369Z,3.63
2022-10-17T05:17:02.845Z,3.87
2022-10-17T05:18:05.167Z,3.77
2022-10-17T05:19:06.683Z,4.10
2022-10-17T05:20:14.137Z,3.93
2022-10-17T05:21:16.080Z,3.70
2022-10-17T05:22:17.447Z,3.70
2022-10-17T05:23:18.779Z,3.77
2022-10-17T05:24:20.146Z,3.50
2022-10-17T05:25:22.759Z,3.90
2022-10-17T05:26:24.981Z,3.37
2022-10-17T05:27:26.933Z,3.30
2022-10-17T05:28:28.774Z,3.50
2022-10-17T05:29:34.492Z,3.53
2022-10-17T05:30:45.562Z,3.67
2022-10-17T05:31:46.952Z,3.37
2022-10-17T05:32:48.345Z,3.50
2022-10-17T05:33:49.804Z,3.80
2022-10-17T05:34:51.163Z,3.80
2022-10-17T05:35:52.762Z,3.90
2022-10-17T05:36:54.204Z,3.80
2022-10-17T05:37:58.083Z,3.87
2022-10-17T05:39:00.134Z,3.80
2022-10-17T05:40:03.177Z,4.27
2022-10-17T05:41:05.659Z,3.83
2022-10-17T05:42:07.601Z,3.57
2022-10-17T05:43:09.578Z,3.80
2022-10-17T05:44:11.169Z,3.60
2022-10-17T05:45:15.883Z,4.20
2022-10-17T05:46:17.295Z,3.70
2022-10-17T05:47:18.712Z,3.70
2022-10-17T05:48:20.285Z,3.90
2022-10-17T05:49:33.025Z,3.53
2022-10-17T05:50:41.575Z,3.97
2022-10-17T05:51:47.801Z,3.90
2022-10-17T05:52:52.874Z,3.80
2022-10-17T05:53:54.318Z,4.10
2022-10-17T05:54:59.338Z,3.57
2022-10-17T05:56:03.463Z,4.00
2022-10-17T05:57:05.940Z,3.53
2022-10-17T05:58:07.931Z,3.80
2022-10-17T05:59:13.570Z,3.60
2022-10-17T06:00:23.027Z,3.70
2022-10-17T06:01:30.935Z,3.73
2022-10-17T06:02:32.954Z,4.10
2022-10-17T06:03:34.819Z,5.10
2022-10-17T06:04:45.269Z,5.00
2022-10-17T06:05:47.649Z,4.13
2022-10-17T06:06:49.085Z,4.13
2022-10-17T06:07:52.589Z,3.97
2022-10-17T06:08:55.007Z,3.50
2022-10-17T06:10:02.100Z,3.63
2022-10-17T06:11:07.540Z,3.30
2022-10-17T06:12:11.411Z,3.80
2022-10-17T06:13:12.786Z,3.50
2022-10-17T06:14:14.594Z,3.63
2022-10-17T06:15:16.631Z,3.33
2022-10-17T06:16:22.535Z,3.43
2022-10-17T06:17:23.861Z,3.27
2022-10-17T06:18:26.318Z,3.30
2022-10-17T06:19:28.311Z,3.10
2022-10-17T06:20:29.643Z,3.00
2022-10-17T06:21:34.334Z,3.30
2022-10-17T06:22:47.856Z,3.67
2022-10-17T06:23:56.141Z,2.87
2022-10-17T06:25:05.092Z,3.23
2022-10-17T06:26:06.722Z,3.13
2022-10-17T06:27:11.095Z,2.93
2022-10-17T06:28:14.402Z,3.17
2022-10-17T06:29:16.008Z,3.33
2022-10-17T06:30:21.575Z,2.87
2022-10-17T06:31:23.715Z,4.80
2022-10-17T06:32:25.138Z,4.77
2022-10-17T06:33:26.477Z,3.73
2022-10-17T06:34:27.997Z,3.70
2022-10-17T06:35:29.379Z,3.93
2022-10-17T06:36:30.706Z,3.57
2022-10-17T06:37:35.591Z,3.30
2022-10-17T06:38:40.849Z,3.30
2022-10-17T06:39:53.984Z,3.27
2022-10-17T06:41:03.815Z,3.30
2022-10-17T06:42:05.617Z,3.20
2022-10-17T06:43:26.953Z,3.00
2022-10-17T06:44:51.979Z,3.10
2022-10-17T06:47:13.442Z,2.80
2022-10-17T06:48:18.255Z,2.83
2022-10-17T06:49:38.223Z,2.90
2022-10-17T06:51:01.894Z,3.23
2022-10-17T06:52:03.307Z,2.80
2022-10-17T06:53:14.279Z,2.93
2022-10-17T06:54:40.020Z,2.53
2022-10-17T06:56:04.557Z,2.87
2022-10-17T06:57:21.469Z,2.70
2022-10-17T06:58:47.571Z,3.13
2022-10-17T07:00:00.992Z,2.23
2022-10-17T07:01:13.525Z,2.43
2022-10-17T07:02:15.044Z,2.70
2022-10-17T07:03:17.255Z,2.80
2022-10-17T07:04:18.676Z,2.80
2022-10-17T07:05:20.126Z,2.90
2022-10-17T07:06:24.346Z,2.60
2022-10-17T07:07:26.075Z,2.70
2022-10-17T07:08:28.051Z,2.47
2022-10-17T07:09:29.910Z,2.20
2022-10-17T07:10:38.147Z,2.90
2022-10-17T07:11:41.989Z,2.40
2022-10-17T07:12:45.701Z,2.63
2022-10-17T07:13:47.474Z,2.50
2022-10-17T07:14:50.563Z,2.60
2022-10-17T07:15:52.311Z,2.50
2022-10-17T07:16:53.756Z,2.37
2022-10-17T07:17:58.243Z,2.63
2022-10-17T07:19:00.048Z,2.60
2022-10-17T07:20:01.614Z,2.40
2022-10-17T07:21:05.507Z,2.43
2022-10-17T07:22:07.262Z,2.60
2022-10-17T07:23:10.955Z,2.43
2022-10-17T07:24:12.823Z,2.80
2022-10-17T07:25:17.205Z,2.60
2022-10-17T07:26:24.229Z,2.40
2022-10-17T07:27:25.682Z,2.40
2022-10-17T07:28:28.157Z,2.50
2022-10-17T07:29:31.357Z,2.70
2022-10-17T07:30:39.574Z,2.57
2022-10-17T07:31:45.581Z,2.60
2022-10-17T07:32:47.113Z,2.57
2022-10-17T07:33:48.826Z,2.83
2022-10-17T07:34:50.440Z,2.50
2022-10-17T07:35:52.738Z,2.57
2022-10-17T07:36:54.126Z,2.47
2022-10-17T07:37:55.444Z,2.20
2022-10-17T07:38:56.871Z,2.00
2022-10-17T07:39:59.561Z,2.33
2022-10-17T07:41:01.855Z,2.47
2022-10-17T07:42:03.718Z,2.20
2022-10-17T07:43:05.079Z,2.17
2022-10-17T07:44:06.474Z,2.40
2022-10-17T07:45:13.331Z,2.47
2022-10-17T07:46:16.370Z,1.97
2022-10-17T07:47:18.151Z,1.90
2022-10-17T07:48:22.583Z,2.10
2022-10-17T07:49:23.968Z,2.07
2022-10-17T07:50:26.136Z,2.30
2022-10-17T07:51:27.953Z,2.00
2022-10-17T07:52:29.584Z,1.83
2022-10-17T07:53:31.300Z,1.97
2022-10-17T07:54:32.605Z,2.10
2022-10-17T07:55:33.923Z,2.17
2022-10-17T07:56:35.966Z,2.03
2022-10-17T07:57:37.337Z,2.20
2022-10-17T07:58:38.957Z,2.10
2022-10-17T07:59:40.274Z,2.37
2022-10-17T08:00:41.739Z,2.03
2022-10-17T08:01:43.234Z,2.30
2022-10-17T08:02:44.559Z,2.60
2022-10-17T08:03:46.555Z,1.90
2022-10-17T08:04:47.840Z,2.10
2022-10-17T08:05:49.195Z,1.90
2022-10-17T08:06:53.458Z,2.00
2022-10-17T08:07:57.897Z,2.17
2022-10-17T08:08:59.576Z,1.97
2022-10-17T08:10:01.034Z,2.03
2022-10-17T08:11:08.536Z,2.10
2022-10-17T08:12:10.152Z,2.07
2022-10-17T08:13:11.522Z,2.00
2022-10-17T08:14:13.841Z,2.00
2022-10-17T08:15:15.169Z,1.80
2022-10-17T08:16:16.490Z,1.80
2022-10-17T08:17:17.831Z,2.00
2022-10-17T08:18:19.196Z,2.07
2022-10-17T08:19:20.515Z,2.03
2022-10-17T08:20:22.210Z,2.00
2022-10-17T08:21:23.975Z,2.10
2022-10-17T08:22:31.417Z,2.10
2022-10-17T08:23:33.190Z,2.07
2022-10-17T08:24:34.726Z,1.98
2022-10-17T08:25:37.899Z,2.40
2022-10-17T08:26:42.462Z,2.22
2022-10-17T08:27:45.409Z,2.63
2022-10-17T08:28:47.032Z,2.20
2022-10-17T08:29:48.822Z,2.10
2022-10-17T08:30:50.256Z,2.25
2022-10-17T08:31:56.237Z,1.92
2022-10-17T08:33:02.517Z,2.13
2022-10-17T08:34:03.829Z,2.10
2022-10-17T08:35:05.308Z,1.98
2022-10-17T08:36:07.170Z,1.80
2022-10-17T08:37:08.498Z,2.13
2022-10-17T08:38:12.245Z,1.85
2022-10-17T08:39:14.790Z,2.30
2022-10-17T08:40:20.640Z,1.65
2022-10-17T08:41:37.304Z,2.17
2022-10-17T08:42:57.674Z,2.22
2022-10-17T08:44:17.416Z,2.08
2022-10-17T08:45:22.017Z,1.73
2022-10-17T08:46:28.409Z,1.80
2022-10-17T08:47:34.916Z,2.28
2022-10-17T08:48:45.509Z,2.37
2022-10-17T08:49:52.427Z,2.10
2022-10-17T08:50:59.204Z,2.20
2022-10-17T08:52:07.218Z,2.38
2022-10-17T08:53:22.977Z,2.92
2022-10-17T08:54:32.165Z,3.30
2022-10-17T08:55:38.832Z,5.57
2022-10-17T08:56:48.842Z,5.30
2022-10-17T08:57:50.828Z,5.95
2022-10-17T08:58:52.573Z,4.32
2022-10-17T08:59:54.284Z,3.75
2022-10-17T09:01:01.810Z,3.30
2022-10-17T09:02:11.062Z,2.58
2022-10-17T09:03:17.314Z,2.58
2022-10-17T09:04:41.608Z,2.78
2022-10-17T09:06:01.481Z,2.50
2022-10-17T09:07:13.597Z,3.00
2022-10-17T09:08:24.861Z,2.15
2022-10-17T09:09:32.394Z,2.30
2022-10-17T09:10:52.700Z,2.47
2022-10-17T09:12:13.028Z,2.38
2022-10-17T09:13:28.622Z,2.30
2022-10-17T09:14:48.408Z,2.13
2022-10-17T09:16:08.594Z,2.30
2022-10-17T09:17:19.141Z,2.20
2022-10-17T09:18:28.923Z,2.35
2022-10-17T09:19:43.220Z,2.22
2022-10-17T09:20:51.461Z,3.15
2022-10-17T09:22:01.408Z,3.10
2022-10-17T09:23:06.846Z,2.90
2022-10-17T09:24:28.038Z,3.20
2022-10-17T09:25:32.537Z,2.60
2022-10-17T09:26:34.158Z,3.13
2022-10-17T09:27:38.725Z,2.65
2022-10-17T09:28:41.632Z,2.45
2022-10-17T09:29:46.304Z,2.40
2022-10-17T09:30:51.657Z,2.70
2022-10-17T09:32:01.655Z,2.50
2022-10-17T09:33:28.484Z,2.47
2022-10-17T09:34:37.500Z,2.83
2022-10-17T09:35:39.413Z,2.40
2022-10-17T09:36:42.472Z,2.63
2022-10-17T09:37:45.076Z,2.10
2022-10-17T09:38:53.926Z,2.25
2022-10-17T09:39:55.784Z,2.10
2022-10-17T09:41:00.317Z,2.05
2022-10-17T09:42:02.371Z,2.33
2022-10-17T09:43:06.768Z,2.20
2022-10-17T09:44:28.605Z,2.17
2022-10-17T09:45:33.637Z,2.10
2022-10-17T09:46:37.369Z,2.30
2022-10-17T09:47:41.487Z,2.40
2022-10-17T09:48:53.388Z,2.28
2022-10-17T09:49:55.515Z,2.65
2022-10-17T09:51:08.301Z,2.50
2022-10-17T09:52:31.484Z,2.10
2022-10-17T09:53:37.935Z,2.17
2022-10-17T09:54:44.580Z,2.53
2022-10-17T09:55:48.383Z,2.40
2022-10-17T09:57:04.288Z,2.40
2022-10-17T09:58:06.762Z,2.20
2022-10-17T09:59:13.766Z,2.53
2022-10-17T10:00:20.910Z,2.80
2022-10-17T10:01:30.701Z,2.65
2022-10-17T10:02:36.399Z,2.55
2022-10-17T10:03:37.856Z,2.40
2022-10-17T10:05:07.372Z,2.00
2022-10-17T10:06:12.004Z,2.25
2022-10-17T10:07:13.484Z,2.10
2022-10-17T10:08:16.284Z,2.50
2022-10-17T10:09:22.398Z,2.10
2022-10-17T10:10:27.643Z,2.72
2022-10-17T10:11:55.795Z,2.50
2022-10-17T10:13:03.303Z,2.30
2022-10-17T10:14:11.493Z,2.45
2022-10-17T10:15:45.070Z,2.55
2022-10-17T10:16:46.988Z,2.10
2022-10-17T10:17:48.471Z,2.30
2022-10-17T10:18:51.176Z,2.60
2022-10-17T10:19:52.740Z,2.70
2022-10-17T10:21:02.975Z,1.90
2022-10-17T10:22:17.266Z,2.38
2022-10-17T10:23:21.276Z,2.10
2022-10-17T10:24:26.928Z,2.22
2022-10-17T10:25:31.111Z,2.22
2022-10-17T10:26:35.527Z,2.67
2022-10-17T10:27:39.659Z,2.40
2022-10-17T10:28:42.008Z,2.70
2022-10-17T10:29:49.701Z,5.30
2022-10-17T10:30:52.437Z,3.28
2022-10-17T10:31:54.119Z,2.30
2022-10-17T10:32:57.171Z,2.47
2022-10-17T10:34:00.475Z,2.20
2022-10-17T10:35:03.938Z,2.20
2022-10-17T10:36:07.988Z,2.65
2022-10-17T10:37:20.372Z,2.75
2022-10-17T10:38:22.011Z,2.47
2022-10-17T10:39:32.401Z,2.22
2022-10-17T10:41:07.399Z,1.98
2022-10-17T10:42:24.526Z,2.53
2022-10-17T10:43:46.289Z,2.20
2022-10-17T10:44:48.739Z,2.60
2022-10-17T10:45:51.242Z,2.35
2022-10-17T10:47:31.919Z,2.45
2022-10-17T10:48:35.697Z,2.10
2022-10-17T10:49:40.208Z,2.33
2022-10-17T10:50:50.154Z,2.40
2022-10-17T10:51:52.487Z,2.65
2022-10-17T10:53:00.167Z,2.40
2022-10-17T10:54:01.899Z,2.72
2022-10-17T10:55:15.443Z,3.00
2022-10-17T10:56:28.209Z,2.40
2022-10-17T10:57:30.805Z,2.53
2022-10-17T10:58:47.913Z,2.90
2022-10-17T11:00:03.177Z,2.75
2022-10-17T11:01:13.349Z,2.33
2022-10-17T11:02:23.649Z,2.35
2022-10-17T11:03:51.474Z,2.20
2022-10-17T11:04:57.135Z,2.35
2022-10-17T11:06:19.060Z,2.22
2022-10-17T11:07:23.925Z,2.38
2022-10-17T11:08:38.476Z,2.53
2022-10-17T11:09:46.511Z,2.42
2022-10-17T11:11:06.546Z,2.30
2022-10-17T11:12:13.460Z,2.35
2022-10-17T11:13:21.132Z,2.47
2022-10-17T11:14:38.877Z,2.40
2022-10-17T11:15:42.955Z,2.65
2022-10-17T11:16:47.363Z,2.80
2022-10-17T11:18:00.099Z,3.10
2022-10-17T11:19:13.629Z,2.33
2022-10-17T11:20:20.027Z,2.42
2022-10-17T11:21:44.744Z,2.30
2022-10-17T11:22:52.318Z,1.90
2022-10-17T11:23:59.491Z,1.95
2022-10-17T11:25:05.348Z,1.98
2022-10-17T11:26:11.395Z,2.28
2022-10-17T11:27:13.304Z,2.22
2022-10-17T11:28:17.170Z,2.40
2022-10-17T11:29:18.736Z,2.90
2022-10-17T11:30:21.193Z,2.50
2022-10-17T11:31:34.197Z,2.58
2022-10-17T11:32:44.812Z,2.63
2022-10-17T11:33:58.321Z,2.42
2022-10-17T11:35:20.032Z,2.33
2022-10-17T11:36:30.824Z,2.13
2022-10-17T11:37:40.733Z,2.30
2022-10-17T11:38:48.751Z,2.42
2022-10-17T11:40:00.541Z,2.10
2022-10-17T11:41:03.054Z,2.28
2022-10-17T11:42:07.178Z,1.88
2022-10-17T11:43:12.440Z,2.35
2022-10-17T11:44:35.980Z,2.00
2022-10-17T11:45:41.026Z,2.50
2022-10-17T11:46:43.083Z,2.13
2022-10-17T11:47:46.698Z,2.47
2022-10-17T11:49:06.726Z,3.47
2022-10-17T11:52:59.438Z,2.50
2022-10-17T11:54:12.489Z,2.22
2022-10-17T11:55:18.429Z,2.50
2022-10-17T11:56:36.122Z,2.58
2022-10-17T11:57:57.370Z,2.20
2022-10-17T11:59:25.143Z,2.20
2022-10-17T12:00:48.806Z,2.20
2022-10-17T12:01:54.330Z,2.63
2022-10-17T12:03:12.092Z,2.28
2022-10-17T12:04:20.128Z,2.45
2022-10-17T12:05:33.088Z,2.38
2022-10-17T12:06:49.907Z,2.40
2022-10-17T12:07:55.169Z,2.22
2022-10-17T12:08:56.780Z,2.33
2022-10-17T12:10:15.736Z,2.15
2022-10-17T12:11:23.067Z,2.33
2022-10-17T12:12:26.670Z,2.10
2022-10-17T12:13:28.539Z,2.55
2022-10-17T12:14:41.031Z,2.33
2022-10-17T12:15:46.542Z,2.30
2022-10-17T12:16:48.949Z,2.40
2022-10-17T12:17:59.461Z,2.60
2022-10-17T12:19:01.052Z,2.30
2022-10-17T12:20:21.340Z,2.00
2022-10-17T12:21:31.181Z,2.10
2022-10-17T12:22:33.716Z,2.20
2022-10-17T12:23:36.495Z,2.30
2022-10-17T12:24:41.387Z,2.30
2022-10-17T12:26:01.164Z,2.55
2022-10-17T12:27:23.638Z,2.20
2022-10-17T12:28:31.607Z,2.20
2022-10-17T12:29:33.199Z,2.38
2022-10-17T12:30:34.992Z,2.40
2022-10-17T12:31:37.096Z,2.17
2022-10-17T12:33:04.151Z,2.15
2022-10-17T12:34:16.426Z,2.60
2022-10-17T12:35:21.004Z,2.40
2022-10-17T12:36:22.779Z,2.50
2022-10-17T12:37:43.100Z,2.17
2022-10-17T12:38:49.226Z,2.15
2022-10-17T12:39:52.073Z,2.50
2022-10-17T12:40:57.826Z,2.42
2022-10-17T12:41:59.850Z,2.15
2022-10-17T12:43:15.012Z,2.05
2022-10-17T12:44:23.256Z,2.78
2022-10-17T12:45:45.082Z,2.40
2022-10-17T12:46:52.522Z,2.50
2022-10-17T12:47:53.936Z,2.60
2022-10-17T12:48:59.252Z,2.55
2022-10-17T12:50:00.610Z,2.05
2022-10-17T12:52:40.019Z,2.42
2022-10-17T12:53:56.593Z,2.13
2022-10-17T12:55:10.854Z,3.05
2022-10-17T12:56:14.813Z,2.25
2022-10-17T12:57:27.403Z,1.98
2022-10-17T12:58:29.263Z,2.47
2022-10-17T12:59:30.829Z,2.40
2022-10-17T13:00:59.577Z,2.28
2022-10-17T13:02:12.434Z,2.13
2022-10-17T13:03:18.329Z,2.22
2022-10-17T13:04:20.413Z,2.22
2022-10-17T13:05:29.654Z,2.00
2022-10-17T13:06:31.705Z,2.17
2022-10-17T13:07:33.856Z,3.00
2022-10-17T13:08:39.870Z,2.13
2022-10-17T13:09:43.525Z,2.13
2022-10-17T13:10:49.064Z,2.40
2022-10-17T13:11:53.871Z,2.58
2022-10-17T13:13:01.845Z,2.28
2022-10-17T13:14:11.771Z,2.30
2022-10-17T13:15:16.691Z,2.88
2022-10-17T13:16:30.893Z,2.67
2022-10-17T13:17:32.531Z,2.70
2022-10-17T13:18:34.299Z,2.30
2022-10-17T13:19:43.536Z,2.30
2022-10-17T13:20:54.236Z,2.03
2022-10-17T13:21:59.835Z,2.33
2022-10-17T13:23:02.815Z,2.30
2022-10-17T13:24:20.212Z,2.20
2022-10-17T13:25:21.760Z,2.10
2022-10-17T13:26:24.556Z,2.58
2022-10-17T13:27:27.687Z,2.42
2022-10-17T13:28:29.095Z,2.53
2022-10-17T13:29:32.060Z,2.15
2022-10-17T13:30:35.140Z,2.30
2022-10-17T13:31:41.293Z,2.47
2022-10-17T13:32:45.027Z,2.38
2022-10-17T13:33:46.308Z,2.60
2022-10-17T13:35:04.821Z,2.33
2022-10-17T13:36:15.565Z,2.60
2022-10-17T13:37:16.973Z,2.50
2022-10-17T13:39:45.318Z,2.17
2022-10-17T13:40:50.490Z,2.67
2022-10-17T13:41:53.648Z,2.20
2022-10-17T13:42:56.663Z,2.70
2022-10-17T13:43:58.309Z,2.47
2022-10-17T13:44:59.743Z,2.42
2022-10-17T13:46:25.439Z,2.47
2022-10-17T13:47:53.029Z,2.60
2022-10-17T13:48:55.587Z,2.20
2022-10-17T13:49:57.794Z,2.50
2022-10-17T13:51:04.502Z,2.45
2022-10-17T13:52:14.492Z,2.33
2022-10-17T13:53:29.394Z,2.13
2022-10-17T13:54:40.113Z,2.70
2022-10-17T13:56:09.087Z,2.80
2022-10-17T13:57:22.983Z,3.45
2022-10-17T13:58:24.782Z,2.90
2022-10-17T13:59:30.159Z,2.50
2022-10-17T14:00:31.576Z,2.50
2022-10-17T14:01:33.085Z,2.50
2022-10-17T14:02:35.136Z,2.35
2022-10-17T14:03:48.121Z,2.60
2022-10-17T14:05:16.291Z,2.58
2022-10-17T14:06:20.267Z,2.40
2022-10-17T14:07:25.101Z,2.78
2022-10-17T14:08:26.454Z,2.08
2022-10-17T14:09:28.964Z,2.40
2022-10-17T14:10:31.950Z,2.50
2022-10-17T14:11:37.508Z,2.30
2022-10-17T14:12:42.934Z,2.50
2022-10-17T14:13:48.296Z,2.58
2022-10-17T14:15:09.876Z,2.47
2022-10-17T14:16:11.994Z,2.63
2022-10-17T14:17:24.500Z,2.20
2022-10-17T14:18:35.931Z,2.58
2022-10-17T14:19:38.990Z,2.35
2022-10-17T14:21:19.836Z,2.72
2022-10-17T14:22:19.970Z,2.50
2022-10-17T14:23:38.553Z,2.70
2022-10-17T14:24:42.158Z,2.80
2022-10-17T14:25:43.851Z,2.65
2022-10-17T14:26:59.703Z,2.65
2022-10-17T14:28:03.462Z,2.70
2022-10-17T14:29:06.550Z,2.65
2022-10-17T14:31:53.508Z,3.00
2022-10-17T14:32:56.709Z,2.75
2022-10-17T14:33:58.774Z,2.42
2022-10-17T14:35:18.897Z,2.40
2022-10-17T14:36:31.070Z,2.60
2022-10-17T14:37:38.703Z,2.83
2022-10-17T14:38:44.633Z,2.90
2022-10-17T14:39:49.762Z,2.88
2022-10-17T14:40:52.453Z,2.55
2022-10-17T14:41:54.312Z,2.25
2022-10-17T14:43:00.452Z,2.53
2022-10-17T14:44:06.547Z,2.60
2022-10-17T14:45:09.459Z,2.85
2022-10-17T14:46:17.678Z,2.85
2022-10-17T14:47:42.098Z,3.05
2022-10-17T14:48:43.122Z,2.30
2022-10-17T14:49:48.942Z,2.58
2022-10-17T14:51:14.173Z,2.65
2022-10-17T14:52:18.312Z,2.50
2022-10-17T14:53:21.430Z,2.50
2022-10-17T14:54:25.844Z,2.50